createdAt,value
2017-11-04T00:01:09.472Z,15.53
2017-11-04T00:03:10.753Z,15.48
2017-11-04T00:05:12.372Z,15.50
2017-11-04T00:07:13.737Z,15.51
2017-11-04T00:09:15.106Z,15.50
2017-11-04T00:11:16.440Z,15.49
2017-11-04T00:13:18.814Z,15.49
2017-11-04T00:15:21.263Z,15.45
2017-11-04T00:17:22.808Z,15.52
2017-11-04T00:19:24.955Z,15.51
2017-11-04T00:21:26.613Z,15.45
2017-11-04T00:23:27.964Z,15.49
2017-11-04T00:25:29.413Z,15.40
2017-11-04T00:27:31.068Z,15.44
2017-11-04T00:29:32.400Z,15.45
2017-11-04T00:31:33.755Z,15.44
2017-11-04T00:33:35.283Z,15.44
2017-11-04T00:35:36.569Z,15.40
2017-11-04T00:37:38.003Z,15.43
2017-11-04T00:39:39.535Z,15.36
2017-11-04T00:41:40.983Z,15.40
2017-11-04T00:43:42.331Z,15.39
2017-11-04T00:45:43.893Z,15.39
2017-11-04T00:47:45.136Z,15.37
2017-11-04T00:49:46.675Z,15.33
2017-11-04T00:51:48.141Z,15.36
2017-11-04T00:53:49.674Z,15.31
2017-11-04T00:55:51.235Z,15.30
2017-11-04T00:57:53.714Z,15.29
2017-11-04T00:59:55.042Z,15.35
2017-11-04T01:01:56.493Z,15.30
2017-11-04T01:03:57.805Z,15.34
2017-11-04T01:05:59.200Z,15.34
2017-11-04T01:08:00.429Z,15.30
2017-11-04T01:10:02.005Z,15.34
2017-11-04T01:12:03.552Z,15.28
2017-11-04T01:14:04.977Z,15.26
2017-11-04T01:16:06.265Z,15.31
2017-11-04T01:18:07.671Z,15.27
2017-11-04T01:20:08.938Z,15.21
2017-11-04T01:22:10.317Z,15.28
2017-11-04T01:24:12.324Z,15.24
2017-11-04T01:26:13.981Z,15.28
2017-11-04T01:28:15.645Z,15.24
2017-11-04T01:30:16.960Z,15.30
2017-11-04T01:32:18.339Z,15.33
2017-11-04T01:34:19.654Z,15.34
2017-11-04T01:36:20.934Z,15.42
2017-11-04T01:38:23.160Z,15.47
2017-11-04T01:40:24.478Z,15.49
2017-11-04T01:42:26.481Z,15.46
2017-11-04T01:44:27.824Z,15.48
2017-11-04T01:46:29.276Z,15.55
2017-11-04T01:48:30.956Z,15.52
2017-11-04T01:50:33.212Z,15.52
2017-11-04T01:52:34.539Z,15.34
2017-11-04T01:54:37.224Z,15.51
2017-11-04T01:56:38.534Z,15.56
2017-11-04T01:58:39.866Z,15.58
2017-11-04T02:00:41.272Z,15.57
2017-11-04T02:02:43.521Z,15.55
2017-11-04T02:04:44.841Z,15.54
2017-11-04T02:06:46.082Z,15.53
2017-11-04T02:08:48.179Z,15.53
2017-11-04T02:10:49.454Z,15.49
2017-11-04T02:12:50.796Z,15.51
2017-11-04T02:14:52.211Z,15.48
2017-11-04T02:16:53.776Z,15.49
2017-11-04T02:18:55.221Z,15.45
2017-11-04T02:20:56.503Z,15.46
2017-11-04T02:22:57.837Z,15.43
2017-11-04T02:24:59.147Z,15.46
2017-11-04T02:27:00.531Z,15.45
2017-11-04T02:29:02.158Z,15.45
2017-11-04T02:31:03.711Z,15.45
2017-11-04T02:33:05.138Z,15.38
2017-11-04T02:35:06.585Z,15.42
2017-11-04T02:37:09.164Z,15.39
2017-11-04T02:39:10.443Z,15.36
2017-11-04T02:41:12.171Z,15.33
2017-11-04T02:43:13.511Z,15.31
2017-11-04T02:45:14.958Z,15.24
2017-11-04T02:47:16.478Z,15.26
2017-11-04T02:49:17.751Z,15.24
2017-11-04T02:51:19.309Z,15.22
2017-11-04T02:53:20.602Z,15.21
2017-11-04T02:55:21.940Z,15.18
2017-11-04T02:57:24.776Z,15.17
2017-11-04T02:59:26.081Z,15.17
2017-11-04T03:01:27.410Z,15.15
2017-11-04T03:03:29.423Z,15.13
2017-11-04T03:05:30.878Z,15.14
2017-11-04T03:07:33.008Z,15.12
2017-11-04T03:09:35.927Z,15.12
2017-11-04T03:11:37.482Z,15.08
2017-11-04T03:13:38.919Z,15.05
2017-11-04T03:15:40.186Z,15.09
2017-11-04T03:17:41.468Z,15.01
2017-11-04T03:19:42.849Z,15.07
2017-11-04T03:21:44.513Z,14.99
2017-11-04T03:23:45.838Z,15.00
2017-11-04T03:25:47.415Z,15.03
2017-11-04T03:27:49.060Z,14.98
2017-11-04T03:29:50.505Z,14.98
2017-11-04T03:31:51.856Z,15.03
2017-11-04T03:33:53.248Z,14.96
2017-11-04T03:35:54.656Z,15.00
2017-11-04T03:37:55.918Z,14.96
2017-11-04T03:39:57.352Z,14.95
2017-11-04T03:41:58.680Z,14.95
2017-11-04T03:43:59.946Z,14.99
2017-11-04T03:46:01.988Z,14.93
2017-11-04T03:48:03.336Z,14.89
2017-11-04T03:50:04.702Z,14.91
2017-11-04T03:52:06.132Z,14.96
2017-11-04T03:54:07.600Z,14.94
2017-11-04T03:56:08.921Z,14.89
2017-11-04T03:58:10.852Z,14.93
2017-11-04T04:00:12.191Z,14.93
2017-11-04T04:02:13.576Z,14.93
2017-11-04T04:04:15.031Z,14.87
2017-11-04T04:06:16.589Z,14.91
2017-11-04T04:08:18.016Z,14.86
2017-11-04T04:10:19.355Z,14.92
2017-11-04T04:12:20.604Z,14.91
2017-11-04T04:14:23.179Z,14.91
2017-11-04T04:16:24.531Z,14.86
2017-11-04T04:18:25.824Z,14.89
2017-11-04T04:20:27.322Z,14.88
2017-11-04T04:22:29.759Z,14.87
2017-11-04T04:24:31.343Z,14.87
2017-11-04T04:26:32.805Z,14.88
2017-11-04T04:28:34.253Z,14.87
2017-11-04T04:30:35.589Z,14.86
2017-11-04T04:32:37.136Z,14.81
2017-11-04T04:34:38.431Z,14.79
2017-11-04T04:36:40.037Z,14.60
2017-11-04T04:38:42.202Z,14.81
2017-11-04T04:40:44.467Z,14.83
2017-11-04T04:42:45.803Z,14.83
2017-11-04T04:44:47.648Z,14.80
2017-11-04T04:46:48.936Z,14.84
2017-11-04T04:48:50.261Z,14.83
2017-11-04T04:50:51.600Z,14.90
2017-11-04T04:52:52.962Z,14.90
2017-11-04T04:54:55.228Z,14.98
2017-11-04T04:56:56.635Z,15.02
2017-11-04T04:58:58.015Z,15.07
2017-11-04T05:00:59.865Z,15.04
2017-11-04T05:03:01.243Z,15.09
2017-11-04T05:05:02.672Z,15.14
2017-11-04T05:07:04.033Z,15.14
2017-11-04T05:09:06.377Z,15.14
2017-11-04T05:11:08.324Z,15.15
2017-11-04T05:13:09.797Z,15.13
2017-11-04T05:15:11.241Z,15.15
2017-11-04T05:17:12.688Z,15.11
2017-11-04T05:19:14.135Z,15.11
2017-11-04T05:21:15.586Z,15.11
2017-11-04T05:23:17.047Z,15.09
2017-11-04T05:25:18.478Z,15.12
2017-11-04T05:27:19.916Z,15.07
2017-11-04T05:29:21.211Z,15.11
2017-11-04T05:31:22.597Z,15.10
2017-11-04T05:33:24.081Z,15.11
2017-11-04T05:35:25.531Z,15.04
2017-11-04T05:37:31.268Z,15.04
2017-11-04T05:39:32.942Z,15.01
2017-11-04T05:41:35.601Z,15.08
2017-11-04T05:43:37.048Z,15.06
2017-11-04T05:45:38.811Z,15.09
2017-11-04T05:47:40.971Z,15.05
2017-11-04T05:49:42.525Z,15.02
2017-11-04T05:51:44.792Z,14.97
2017-11-04T05:53:46.235Z,14.98
2017-11-04T05:55:47.575Z,14.88
2017-11-04T05:57:48.926Z,14.86
2017-11-04T05:59:50.395Z,14.83
2017-11-04T06:01:52.029Z,14.80
2017-11-04T06:03:53.483Z,14.78
2017-11-04T06:05:54.801Z,14.78
2017-11-04T06:07:56.374Z,14.80
2017-11-04T06:09:58.021Z,14.72
2017-11-04T06:11:59.378Z,14.76
2017-11-04T06:14:01.025Z,14.76
2017-11-04T06:16:02.283Z,14.69
2017-11-04T06:18:03.602Z,14.73
2017-11-04T06:20:05.054Z,14.73
2017-11-04T06:22:06.403Z,14.68
2017-11-04T06:24:07.762Z,14.73
2017-11-04T06:26:09.400Z,14.70
2017-11-04T06:28:10.961Z,14.58
2017-11-04T06:30:12.508Z,14.63
2017-11-04T06:32:14.171Z,14.69
2017-11-04T06:34:15.593Z,14.63
2017-11-04T06:36:16.956Z,14.67
2017-11-04T06:38:18.420Z,14.61
2017-11-04T06:40:19.847Z,14.64
2017-11-04T06:42:21.196Z,14.63
2017-11-04T06:44:22.988Z,14.62
2017-11-04T06:46:24.291Z,14.63
2017-11-04T06:48:28.138Z,14.59
2017-11-04T06:50:29.661Z,14.64
2017-11-04T06:52:30.989Z,14.63
2017-11-04T06:54:32.644Z,14.58
2017-11-04T06:56:34.000Z,14.60
2017-11-04T06:58:35.317Z,14.60
2017-11-04T07:00:37.295Z,14.60
2017-11-04T07:02:38.954Z,14.55
2017-11-04T07:04:40.408Z,14.54
2017-11-04T07:06:42.368Z,14.59
2017-11-04T07:08:43.828Z,14.53
2017-11-04T07:10:45.489Z,14.54
2017-11-04T07:12:47.026Z,14.59
2017-11-04T07:14:48.679Z,14.58
2017-11-04T07:16:50.314Z,14.54
2017-11-04T07:18:51.869Z,14.54
2017-11-04T07:20:53.394Z,14.54
2017-11-04T07:22:54.722Z,14.56
2017-11-04T07:24:56.847Z,14.58
2017-11-04T07:26:58.490Z,14.58
2017-11-04T07:28:59.923Z,14.53
2017-11-04T07:31:01.267Z,14.56
2017-11-04T07:33:02.598Z,14.57
2017-11-04T07:35:04.692Z,14.56
2017-11-04T07:37:06.133Z,14.52
2017-11-04T07:39:08.193Z,14.56
2017-11-04T07:41:09.753Z,14.53
2017-11-04T07:43:11.206Z,14.50
2017-11-04T07:45:12.842Z,14.50
2017-11-04T07:47:14.180Z,14.51
2017-11-04T07:49:15.699Z,14.50
2017-11-04T07:51:17.814Z,14.55
2017-11-04T07:53:19.142Z,14.50
2017-11-04T07:55:20.607Z,14.53
2017-11-04T07:57:22.081Z,14.51
2017-11-04T07:59:23.607Z,14.51
2017-11-04T08:01:25.256Z,14.48
2017-11-04T08:03:26.810Z,14.54
2017-11-04T08:05:28.361Z,14.49
2017-11-04T08:07:29.709Z,14.56
2017-11-04T08:09:35.049Z,14.64
2017-11-04T08:11:36.692Z,14.63
2017-11-04T08:13:38.039Z,14.62
2017-11-04T08:15:39.596Z,14.74
2017-11-04T08:17:41.152Z,14.75
2017-11-04T08:19:42.711Z,14.75
2017-11-04T08:21:44.114Z,14.78
2017-11-04T08:23:45.579Z,14.84
2017-11-04T08:25:47.259Z,14.83
2017-11-04T08:27:48.689Z,14.78
2017-11-04T08:29:50.152Z,14.78
2017-11-04T08:31:51.781Z,14.82
2017-11-04T08:33:53.361Z,14.84
2017-11-04T08:35:54.682Z,14.85
2017-11-04T08:37:56.310Z,14.81
2017-11-04T08:39:58.278Z,14.83
2017-11-04T08:42:00.049Z,14.71
2017-11-04T08:44:01.706Z,14.83
2017-11-04T08:46:03.449Z,14.79
2017-11-04T08:48:05.014Z,14.86
2017-11-04T08:50:06.775Z,14.83
2017-11-04T08:52:08.318Z,14.80
2017-11-04T08:54:09.874Z,14.83
2017-11-04T08:56:11.410Z,14.82
2017-11-04T08:58:13.082Z,14.78
2017-11-04T09:00:14.838Z,14.80
2017-11-04T09:02:16.487Z,14.80
2017-11-04T09:04:18.052Z,14.82
2017-11-04T09:06:19.585Z,14.80
2017-11-04T09:08:21.135Z,14.73
2017-11-04T09:10:22.697Z,14.72
2017-11-04T09:12:24.260Z,14.73
2017-11-04T09:14:25.717Z,14.71
2017-11-04T09:16:27.437Z,14.64
2017-11-04T09:18:29.008Z,14.62
2017-11-04T09:20:30.340Z,14.65
2017-11-04T09:22:31.896Z,14.61
2017-11-04T09:24:33.555Z,14.58
2017-11-04T09:26:35.307Z,14.57
2017-11-04T09:28:36.858Z,14.58
2017-11-04T09:30:38.407Z,14.56
2017-11-04T09:32:40.155Z,14.58
2017-11-04T09:34:41.616Z,14.56
2017-11-04T09:36:43.157Z,14.53
2017-11-04T09:38:44.707Z,14.53
2017-11-04T09:40:46.363Z,14.51
2017-11-04T09:42:47.808Z,14.55
2017-11-04T09:44:49.563Z,14.49
2017-11-04T09:46:51.453Z,14.49
2017-11-04T09:48:53.201Z,14.39
2017-11-04T09:50:54.823Z,14.51
2017-11-04T09:52:56.285Z,14.54
2017-11-04T09:54:57.917Z,14.47
2017-11-04T09:56:59.374Z,14.45
2017-11-04T09:59:01.130Z,14.51
2017-11-04T10:01:02.789Z,14.52
2017-11-04T10:03:04.441Z,14.46
2017-11-04T10:05:06.409Z,14.52
2017-11-04T10:07:07.940Z,14.52
2017-11-04T10:09:09.510Z,14.53
2017-11-04T10:11:11.394Z,14.52
2017-11-04T10:13:12.678Z,14.48
2017-11-04T10:15:14.668Z,14.48
2017-11-04T10:17:16.209Z,14.53
2017-11-04T10:19:17.870Z,14.51
2017-11-04T10:21:19.626Z,14.52
2017-11-04T10:23:21.377Z,14.48
2017-11-04T10:25:22.917Z,14.52
2017-11-04T10:27:24.903Z,14.47
2017-11-04T10:29:26.857Z,14.48
2017-11-04T10:31:28.502Z,14.52
2017-11-04T10:33:30.372Z,14.52
2017-11-04T10:35:32.027Z,14.52
2017-11-04T10:37:33.684Z,14.52
2017-11-04T10:39:35.208Z,14.52
2017-11-04T10:41:38.713Z,14.42
2017-11-04T10:43:40.476Z,14.47
2017-11-04T10:45:42.121Z,14.50
2017-11-04T10:47:43.818Z,14.47
2017-11-04T10:49:45.336Z,14.53
2017-11-04T10:51:46.872Z,14.50
2017-11-04T10:53:50.184Z,14.52
2017-11-04T10:55:51.927Z,14.55
2017-11-04T10:57:53.585Z,14.56
2017-11-04T10:59:55.114Z,14.53
2017-11-04T11:01:56.880Z,14.48
2017-11-04T11:03:58.743Z,14.53
2017-11-04T11:06:00.706Z,14.51
2017-11-04T11:08:02.661Z,14.53
2017-11-04T11:10:04.829Z,14.50
2017-11-04T11:12:06.466Z,14.55
2017-11-04T11:14:08.246Z,14.53
2017-11-04T11:16:09.824Z,14.58
2017-11-04T11:18:11.641Z,14.58
2017-11-04T11:20:13.441Z,14.54
2017-11-04T11:22:15.148Z,14.59
2017-11-04T11:24:17.101Z,14.59
2017-11-04T11:26:18.755Z,14.61
2017-11-04T11:28:20.651Z,14.71
2017-11-04T11:30:23.024Z,14.75
2017-11-04T11:32:24.752Z,14.77
2017-11-04T11:34:26.593Z,14.76
2017-11-04T11:36:28.679Z,14.84
2017-11-04T11:38:30.761Z,14.88
2017-11-04T11:40:32.450Z,14.90
2017-11-04T11:42:34.240Z,14.92
2017-11-04T11:44:35.892Z,14.90
2017-11-04T11:46:37.625Z,14.92
2017-11-04T11:48:39.413Z,14.89
2017-11-04T11:50:41.377Z,14.89
2017-11-04T11:52:43.327Z,14.94
2017-11-04T11:54:44.987Z,14.89
2017-11-04T11:56:46.641Z,14.92
2017-11-04T11:58:48.294Z,14.89
2017-11-04T12:00:50.149Z,14.93
2017-11-04T12:02:52.007Z,14.94
2017-11-04T12:04:53.548Z,14.90
2017-11-04T12:06:55.302Z,14.96
2017-11-04T12:08:58.309Z,14.90
2017-11-04T12:11:00.161Z,14.98
2017-11-04T12:13:02.017Z,15.02
2017-11-04T12:15:03.970Z,15.03
2017-11-04T12:17:05.721Z,15.00
2017-11-04T12:19:08.084Z,15.01
2017-11-04T12:21:09.882Z,14.83
2017-11-04T12:23:11.721Z,15.05
2017-11-04T12:25:13.565Z,15.09
2017-11-04T12:27:15.232Z,15.11
2017-11-04T12:29:17.092Z,15.08
2017-11-04T12:31:18.839Z,15.07
2017-11-04T12:33:20.693Z,14.97
2017-11-04T12:35:22.460Z,14.98
2017-11-04T12:37:24.206Z,15.03
2017-11-04T12:39:26.068Z,15.03
2017-11-04T12:41:27.928Z,14.96
2017-11-04T12:43:29.671Z,14.96
2017-11-04T12:45:31.431Z,14.94
2017-11-04T12:47:33.279Z,14.99
2017-11-04T12:49:35.139Z,14.93
2017-11-04T12:51:36.994Z,14.93
2017-11-04T12:53:42.525Z,14.94
2017-11-04T12:55:44.723Z,15.00
2017-11-04T12:57:46.570Z,14.99
2017-11-04T12:59:48.116Z,14.95
2017-11-04T13:01:49.879Z,14.99
2017-11-04T13:03:51.734Z,15.00
2017-11-04T13:05:53.595Z,14.97
2017-11-04T13:07:55.471Z,14.97
2017-11-04T13:09:57.404Z,15.02
2017-11-04T13:12:00.116Z,15.02
2017-11-04T13:14:02.158Z,15.02
2017-11-04T13:16:03.989Z,14.91
2017-11-04T13:18:05.797Z,15.02
2017-11-04T13:20:07.726Z,15.03
2017-11-04T13:22:09.463Z,15.04
2017-11-04T13:24:10.917Z,14.98
2017-11-04T13:26:12.688Z,15.04
2017-11-04T13:28:14.245Z,15.02
2017-11-04T13:30:15.947Z,15.07
2017-11-04T13:32:17.811Z,15.09
2017-11-04T13:34:19.711Z,15.13
2017-11-04T13:36:21.253Z,15.13
2017-11-04T13:38:23.633Z,15.14
2017-11-04T13:40:25.299Z,15.15
2017-11-04T13:42:26.928Z,15.15
2017-11-04T13:44:28.665Z,15.17
2017-11-04T13:46:30.557Z,15.19
2017-11-04T13:48:32.361Z,15.21
2017-11-04T13:50:34.359Z,15.18
2017-11-04T13:52:36.129Z,15.23
2017-11-04T13:54:37.975Z,15.19
2017-11-04T13:56:39.847Z,15.24
2017-11-04T13:58:41.578Z,15.26
2017-11-04T14:00:43.331Z,15.29
2017-11-04T14:02:45.226Z,15.25
2017-11-04T14:04:46.882Z,15.25
2017-11-04T14:06:48.717Z,15.26
2017-11-04T14:08:50.341Z,15.32
2017-11-04T14:10:52.024Z,15.32
2017-11-04T14:12:53.776Z,15.32
2017-11-04T14:14:55.326Z,15.29
2017-11-04T14:16:56.978Z,15.35
2017-11-04T14:18:58.725Z,15.31
2017-11-04T14:21:01.435Z,15.36
2017-11-04T14:23:03.485Z,15.32
2017-11-04T14:25:05.246Z,15.38
2017-11-04T14:27:07.087Z,15.38
2017-11-04T14:29:08.837Z,15.40
2017-11-04T14:31:10.688Z,15.38
2017-11-04T14:33:12.563Z,15.44
2017-11-04T14:35:14.085Z,15.46
2017-11-04T14:37:15.873Z,15.42
2017-11-04T14:39:18.032Z,15.48
2017-11-04T14:41:19.788Z,15.48
2017-11-04T14:43:21.657Z,15.44
2017-11-04T14:45:23.510Z,15.54
2017-11-04T14:47:25.152Z,15.56
2017-11-04T14:49:26.727Z,15.63
2017-11-04T14:51:28.521Z,15.68
2017-11-04T14:53:30.466Z,15.76
2017-11-04T14:55:32.384Z,15.81
2017-11-04T14:57:34.248Z,15.85
2017-11-04T14:59:36.175Z,15.87
2017-11-04T15:01:37.947Z,15.88
2017-11-04T15:03:39.700Z,15.85
2017-11-04T15:05:43.611Z,15.90
2017-11-04T15:07:45.356Z,15.92
2017-11-04T15:09:47.114Z,15.93
2017-11-04T15:11:48.762Z,15.90
2017-11-04T15:13:50.424Z,15.94
2017-11-04T15:15:52.215Z,15.89
2017-11-04T15:17:53.935Z,15.95
2017-11-04T15:19:55.527Z,15.86
2017-11-04T15:21:57.385Z,16.10
2017-11-04T15:23:59.195Z,16.16
2017-11-04T15:26:01.166Z,16.21
2017-11-04T15:28:02.920Z,16.13
2017-11-04T15:30:04.466Z,16.10
2017-11-04T15:32:06.115Z,16.10
2017-11-04T15:34:07.672Z,16.03
2017-11-04T15:36:09.424Z,16.07
2017-11-04T15:38:11.205Z,16.00
2017-11-04T15:40:12.929Z,16.04
2017-11-04T15:42:14.619Z,15.98
2017-11-04T15:44:16.584Z,16.04
2017-11-04T15:46:17.971Z,16.03
2017-11-04T15:48:19.674Z,15.99
2017-11-04T15:50:21.391Z,15.92
2017-11-04T15:52:23.131Z,15.95
2017-11-04T15:54:24.709Z,15.89
2017-11-04T15:56:26.363Z,15.88
2017-11-04T15:58:28.130Z,15.87
2017-11-04T16:00:29.771Z,15.86
2017-11-04T16:02:31.424Z,15.85
2017-11-04T16:04:33.212Z,15.82
2017-11-04T16:06:34.712Z,15.88
2017-11-04T16:08:37.295Z,15.88
2017-11-04T16:10:39.161Z,15.85
2017-11-04T16:12:41.326Z,15.81
2017-11-04T16:14:42.965Z,15.81
2017-11-04T16:16:44.741Z,15.86
2017-11-04T16:18:46.377Z,15.85
2017-11-04T16:20:47.950Z,15.87
2017-11-04T16:22:49.595Z,15.84
2017-11-04T16:24:51.254Z,15.87
2017-11-04T16:26:52.900Z,15.81
2017-11-04T16:28:54.662Z,15.86
2017-11-04T16:30:56.202Z,15.86
2017-11-04T16:32:57.963Z,15.85
2017-11-04T16:34:59.505Z,15.86
2017-11-04T16:37:01.165Z,15.86
2017-11-04T16:39:03.126Z,15.82
2017-11-04T16:41:04.787Z,15.87
2017-11-04T16:43:06.531Z,15.82
2017-11-04T16:45:08.407Z,15.87
2017-11-04T16:47:10.040Z,15.87
2017-11-04T16:49:11.809Z,15.81
2017-11-04T16:51:13.354Z,15.87
2017-11-04T16:53:15.030Z,15.88
2017-11-04T16:55:16.976Z,15.83
2017-11-04T16:57:18.637Z,15.84
2017-11-04T16:59:20.157Z,15.88
2017-11-04T17:01:22.529Z,15.89
2017-11-04T17:03:24.157Z,15.89
2017-11-04T17:05:26.883Z,15.91
2017-11-04T17:07:28.509Z,15.86
2017-11-04T17:09:30.194Z,15.86
2017-11-04T17:11:32.031Z,15.92
2017-11-04T17:13:33.576Z,15.92
2017-11-04T17:15:35.336Z,15.93
2017-11-04T17:17:36.898Z,15.90
2017-11-04T17:19:38.436Z,15.88
2017-11-04T17:21:39.796Z,15.91
2017-11-04T17:23:41.559Z,15.96
2017-11-04T17:25:43.194Z,15.91
2017-11-04T17:27:44.930Z,15.93
2017-11-04T17:29:47.946Z,15.98
2017-11-04T17:31:49.506Z,15.94
2017-11-04T17:33:51.129Z,16.00
2017-11-04T17:35:52.897Z,16.01
2017-11-04T17:37:54.653Z,15.96
2017-11-04T17:39:56.615Z,15.96
2017-11-04T17:41:58.243Z,15.96
2017-11-04T17:44:00.023Z,15.97
2017-11-04T17:46:01.459Z,15.98
2017-11-04T17:48:03.314Z,15.98
2017-11-04T17:50:05.077Z,16.03
2017-11-04T17:52:06.825Z,15.99
2017-11-04T17:54:08.576Z,16.01
2017-11-04T17:56:10.344Z,16.05
2017-11-04T17:58:12.006Z,16.05
2017-11-04T18:00:13.744Z,16.06
2017-11-04T18:02:15.419Z,16.08
2017-11-04T18:04:17.161Z,16.15
2017-11-04T18:06:18.808Z,16.17
2017-11-04T18:08:20.461Z,16.23
2017-11-04T18:10:22.218Z,16.30
2017-11-04T18:12:23.851Z,16.28
2017-11-04T18:14:25.533Z,16.36
2017-11-04T18:16:27.167Z,16.38
2017-11-04T18:18:29.003Z,16.39
2017-11-04T18:20:30.696Z,16.42
2017-11-04T18:22:32.639Z,16.44
2017-11-04T18:24:34.615Z,16.41
2017-11-04T18:26:36.161Z,16.47
2017-11-04T18:28:37.812Z,16.48
2017-11-04T18:30:39.365Z,16.42
2017-11-04T18:32:40.938Z,16.43
2017-11-04T18:34:42.557Z,16.44
2017-11-04T18:36:44.333Z,16.49
2017-11-04T18:38:45.978Z,16.49
2017-11-04T18:40:48.241Z,16.45
2017-11-04T18:42:49.890Z,16.50
2017-11-04T18:44:51.659Z,16.45
2017-11-04T18:46:53.723Z,16.51
2017-11-04T18:48:55.376Z,16.51
2017-11-04T18:50:57.120Z,16.51
2017-11-04T18:52:58.777Z,16.49
2017-11-04T18:55:00.626Z,16.46
2017-11-04T18:57:02.188Z,16.48
2017-11-04T18:59:03.864Z,16.50
2017-11-04T19:01:05.388Z,16.47
2017-11-04T19:03:07.146Z,16.47
2017-11-04T19:05:08.711Z,16.54
2017-11-04T19:07:11.281Z,16.49
2017-11-04T19:09:13.011Z,16.43
2017-11-04T19:11:14.666Z,16.47
2017-11-04T19:13:16.327Z,16.45
2017-11-04T19:15:17.988Z,16.36
2017-11-04T19:17:19.742Z,16.35
2017-11-04T19:19:21.395Z,16.40
2017-11-04T19:21:23.047Z,16.39
2017-11-04T19:23:24.708Z,16.37
2017-11-04T19:25:26.465Z,16.35
2017-11-04T19:27:28.208Z,16.29
2017-11-04T19:29:29.870Z,16.33
2017-11-04T19:31:31.520Z,16.34
2017-11-04T19:33:33.173Z,16.32
2017-11-04T19:35:34.607Z,16.28
2017-11-04T19:37:36.259Z,16.33
2017-11-04T19:39:38.006Z,16.29
2017-11-04T19:41:40.800Z,16.33
2017-11-04T19:43:42.563Z,16.33
2017-11-04T19:45:44.213Z,16.33
2017-11-04T19:47:45.869Z,16.33
2017-11-04T19:49:47.621Z,16.33
2017-11-04T19:51:49.270Z,16.28
2017-11-04T19:53:52.464Z,16.28
2017-11-04T19:55:54.248Z,16.32
2017-11-04T19:57:56.189Z,16.25
2017-11-04T19:59:57.837Z,16.27
2017-11-04T20:01:59.585Z,16.28
2017-11-04T20:04:01.245Z,16.33
2017-11-04T20:06:02.909Z,16.28
2017-11-04T20:08:04.743Z,16.28
2017-11-04T20:10:06.511Z,16.28
2017-11-04T20:12:08.048Z,16.33
2017-11-04T20:14:09.709Z,16.27
2017-11-04T20:16:11.565Z,16.33
2017-11-04T20:18:13.210Z,16.33
2017-11-04T20:20:14.692Z,16.29
2017-11-04T20:22:16.208Z,16.33
2017-11-04T20:24:17.772Z,16.34
2017-11-04T20:26:19.418Z,16.28
2017-11-04T20:28:22.009Z,16.33
2017-11-04T20:30:23.633Z,16.34
2017-11-04T20:32:25.490Z,16.30
2017-11-04T20:34:26.986Z,16.30
2017-11-04T20:36:28.619Z,16.36
2017-11-04T20:38:30.129Z,16.35
2017-11-04T20:40:31.826Z,16.30
2017-11-04T20:42:33.479Z,16.36
2017-11-04T20:44:35.035Z,16.36
2017-11-04T20:46:36.674Z,16.33
2017-11-04T20:48:38.316Z,16.31
2017-11-04T20:50:39.979Z,16.35
2017-11-04T20:52:41.635Z,16.36
2017-11-04T20:54:44.110Z,16.37
2017-11-04T20:56:45.855Z,16.33
2017-11-04T20:58:47.420Z,16.37
2017-11-04T21:00:49.063Z,16.33
2017-11-04T21:02:50.620Z,16.38
2017-11-04T21:04:52.156Z,16.33
2017-11-04T21:06:53.811Z,16.38
2017-11-04T21:08:55.551Z,16.39
2017-11-04T21:10:57.145Z,16.35
2017-11-04T21:12:58.666Z,16.38
2017-11-04T21:15:00.326Z,16.33
2017-11-04T21:17:01.877Z,16.33
2017-11-04T21:19:03.530Z,16.39
2017-11-04T21:21:05.031Z,16.34
2017-11-04T21:23:06.731Z,16.44
2017-11-04T21:25:08.486Z,16.47
2017-11-04T21:27:10.256Z,16.56
2017-11-04T21:29:11.904Z,16.62
2017-11-04T21:31:13.449Z,16.61
2017-11-04T21:33:15.103Z,16.64
2017-11-04T21:35:16.630Z,16.71
2017-11-04T21:37:19.334Z,16.69
2017-11-04T21:39:20.880Z,16.73
2017-11-04T21:41:22.529Z,16.76
2017-11-04T21:43:25.109Z,16.70
2017-11-04T21:45:26.740Z,16.78
2017-11-04T21:47:28.524Z,16.80
2017-11-04T21:49:30.157Z,16.81
2017-11-04T21:51:31.788Z,16.82
2017-11-04T21:53:33.130Z,16.80
2017-11-04T21:55:34.705Z,16.75
2017-11-04T21:57:36.378Z,16.76
2017-11-04T21:59:38.423Z,16.75
2017-11-04T22:01:39.989Z,16.73
2017-11-04T22:03:41.640Z,16.81
2017-11-04T22:05:43.187Z,16.79
2017-11-04T22:07:44.947Z,16.78
2017-11-04T22:09:46.593Z,16.73
2017-11-04T22:11:48.128Z,16.73
2017-11-04T22:13:49.800Z,16.78
2017-11-04T22:15:51.397Z,16.78
2017-11-04T22:17:55.343Z,16.78
2017-11-04T22:19:57.016Z,16.79
2017-11-04T22:21:58.444Z,16.72
2017-11-04T22:24:00.211Z,16.72
2017-11-04T22:26:01.867Z,16.76
2017-11-04T22:28:03.618Z,16.73
2017-11-04T22:30:05.266Z,16.70
2017-11-04T22:32:06.935Z,16.62
2017-11-04T22:34:08.495Z,16.63
2017-11-04T22:36:10.223Z,16.61
2017-11-04T22:38:11.771Z,16.55
2017-11-04T22:40:13.319Z,16.52
2017-11-04T22:42:15.286Z,16.52
2017-11-04T22:44:16.846Z,16.55
2017-11-04T22:46:18.489Z,16.53
2017-11-04T22:48:20.466Z,16.48
2017-11-04T22:50:22.108Z,16.51
2017-11-04T22:52:23.558Z,16.46
2017-11-04T22:54:25.081Z,16.49
2017-11-04T22:56:26.582Z,16.49
2017-11-04T22:58:28.117Z,16.49
2017-11-04T23:00:29.855Z,16.48
2017-11-04T23:02:31.812Z,16.43
2017-11-04T23:04:33.499Z,16.42
2017-11-04T23:06:34.906Z,16.42
2017-11-04T23:08:36.564Z,16.47
2017-11-04T23:10:38.223Z,16.47
2017-11-04T23:12:39.873Z,16.46
2017-11-04T23:14:41.523Z,16.47
2017-11-04T23:16:43.290Z,16.46
2017-11-04T23:18:44.954Z,16.41
2017-11-04T23:20:46.605Z,16.45
2017-11-04T23:22:48.250Z,16.44
2017-11-04T23:24:49.894Z,16.43
2017-11-04T23:26:51.455Z,16.44
2017-11-04T23:28:52.955Z,16.39
2017-11-04T23:30:54.642Z,16.43
2017-11-04T23:32:56.226Z,16.42
2017-11-04T23:34:58.687Z,16.42
2017-11-04T23:37:00.439Z,16.42
2017-11-04T23:39:02.098Z,16.37
2017-11-04T23:41:03.750Z,16.41
2017-11-04T23:43:05.381Z,16.41
2017-11-04T23:45:07.033Z,16.35
2017-11-04T23:47:08.606Z,16.33
2017-11-04T23:49:10.256Z,16.34
2017-11-04T23:51:11.798Z,16.33
2017-11-04T23:53:13.662Z,16.33
2017-11-04T23:55:15.196Z,16.35
2017-11-04T23:57:16.585Z,16.39
2017-11-04T23:59:18.091Z,16.37
